createdAt,value
2022-09-12T00:00:29.413Z,1011.37
2022-09-12T00:01:29.532Z,1011.37
2022-09-12T00:02:29.389Z,1011.41
2022-09-12T00:03:29.362Z,1011.35
2022-09-12T00:04:29.358Z,1011.34
2022-09-12T00:05:29.349Z,1011.34
2022-09-12T00:06:29.352Z,1011.33
2022-09-12T00:07:29.322Z,1011.31
2022-09-12T00:08:29.319Z,1011.29
2022-09-12T00:09:29.305Z,1011.29
2022-09-12T00:10:29.284Z,1011.27
2022-09-12T00:11:29.284Z,1011.28
2022-09-12T00:12:29.277Z,1011.27
2022-09-12T00:13:29.265Z,1011.29
2022-09-12T00:14:29.255Z,1011.27
2022-09-12T00:15:29.258Z,1011.30
2022-09-12T00:16:29.274Z,1011.26
2022-09-12T00:17:29.222Z,1011.27
2022-09-12T00:18:29.199Z,1011.22
2022-09-12T00:19:29.218Z,1011.22
2022-09-12T00:20:29.184Z,1011.21
2022-09-12T00:21:29.171Z,1011.23
2022-09-12T00:22:29.192Z,1011.20
2022-09-12T00:23:29.145Z,1011.20
2022-09-12T00:24:29.138Z,1011.26
2022-09-12T00:25:29.121Z,1011.21
2022-09-12T00:26:29.123Z,1011.22
2022-09-12T00:27:29.108Z,1011.21
2022-09-12T00:28:29.108Z,1011.20
2022-09-12T00:29:29.096Z,1011.25
2022-09-12T00:30:29.078Z,1011.21
2022-09-12T00:31:29.111Z,1011.22
2022-09-12T00:32:29.058Z,1011.20
2022-09-12T00:33:29.064Z,1011.22
2022-09-12T00:34:29.035Z,1011.21
2022-09-12T00:35:29.027Z,1011.23
2022-09-12T00:36:29.016Z,1011.22
2022-09-12T00:37:28.999Z,1011.25
2022-09-12T00:38:28.989Z,1011.24
2022-09-12T00:39:28.976Z,1011.24
2022-09-12T00:40:28.968Z,1011.24
2022-09-12T00:41:28.944Z,1011.24
2022-09-12T00:42:28.941Z,1011.25
2022-09-12T00:43:28.928Z,1011.22
2022-09-12T00:44:28.935Z,1011.22
2022-09-12T00:45:28.937Z,1011.22
2022-09-12T00:46:28.903Z,1011.24
2022-09-12T00:47:28.881Z,1011.22
2022-09-12T00:48:28.877Z,1011.25
2022-09-12T00:49:28.865Z,1011.24
2022-09-12T00:50:28.855Z,1011.24
2022-09-12T00:51:28.834Z,1011.20
2022-09-12T00:52:28.829Z,1011.21
2022-09-12T00:53:28.810Z,1011.20
2022-09-12T00:54:28.815Z,1011.21
2022-09-12T00:55:28.809Z,1011.17
2022-09-12T00:56:28.795Z,1011.17
2022-09-12T00:57:28.777Z,1011.18
2022-09-12T00:58:28.763Z,1011.19
2022-09-12T00:59:28.745Z,1011.19
2022-09-12T01:00:28.754Z,1011.16
2022-09-12T01:01:32.332Z,1011.17
2022-09-12T01:02:28.720Z,1011.18
2022-09-12T01:03:28.709Z,1011.15
2022-09-12T01:04:28.695Z,1011.17
2022-09-12T01:05:28.697Z,1011.16
2022-09-12T01:06:28.692Z,1011.16
2022-09-12T01:07:28.671Z,1011.15
2022-09-12T01:08:28.659Z,1011.14
2022-09-12T01:09:28.642Z,1011.12
2022-09-12T01:10:28.633Z,1011.17
2022-09-12T01:11:28.627Z,1011.14
2022-09-12T01:12:28.613Z,1011.14
2022-09-12T01:13:28.603Z,1011.12
2022-09-12T01:14:28.602Z,1011.16
2022-09-12T01:15:28.575Z,1011.17
2022-09-12T01:16:28.684Z,1011.15
2022-09-12T01:17:28.570Z,1011.14
2022-09-12T01:18:28.551Z,1011.11
2022-09-12T01:19:28.534Z,1011.09
2022-09-12T01:20:28.521Z,1011.11
2022-09-12T01:21:28.513Z,1011.13
2022-09-12T01:22:28.507Z,1011.10
2022-09-12T01:23:28.504Z,1011.13
2022-09-12T01:24:28.478Z,1011.14
2022-09-12T01:25:28.471Z,1011.19
2022-09-12T01:26:28.465Z,1011.23
2022-09-12T01:27:28.449Z,1011.26
2022-09-12T01:28:28.448Z,1011.22
2022-09-12T01:29:28.436Z,1011.22
2022-09-12T01:30:28.425Z,1011.23
2022-09-12T01:31:28.401Z,1011.24
2022-09-12T01:32:28.430Z,1011.25
2022-09-12T01:33:28.379Z,1011.22
2022-09-12T01:34:28.375Z,1011.23
2022-09-12T01:35:28.367Z,1011.20
2022-09-12T01:36:28.350Z,1011.22
2022-09-12T01:37:28.334Z,1011.19
2022-09-12T01:38:28.365Z,1011.14
2022-09-12T01:39:28.324Z,1011.17
2022-09-12T01:40:28.325Z,1011.16
2022-09-12T01:41:28.297Z,1011.13
2022-09-12T01:42:28.287Z,1011.12
2022-09-12T01:43:28.274Z,1011.11
2022-09-12T01:44:28.258Z,1011.10
2022-09-12T01:45:28.277Z,1011.10
2022-09-12T01:46:28.258Z,1011.09
2022-09-12T01:47:28.236Z,1011.07
2022-09-12T01:48:28.220Z,1011.12
2022-09-12T01:49:28.209Z,1011.10
2022-09-12T01:50:28.200Z,1011.08
2022-09-12T01:51:28.201Z,1011.09
2022-09-12T01:52:28.185Z,1011.07
2022-09-12T01:53:28.162Z,1011.03
2022-09-12T01:54:28.165Z,1011.02
2022-09-12T01:55:28.142Z,1011.04
2022-09-12T01:56:28.152Z,1011.01
2022-09-12T01:57:28.135Z,1011.00
2022-09-12T01:58:28.120Z,1010.99
2022-09-12T01:59:28.102Z,1011.02
2022-09-12T02:00:28.091Z,1011.03
2022-09-12T02:01:28.126Z,1011.03
2022-09-12T02:02:28.098Z,1011.04
2022-09-12T02:03:28.074Z,1011.01
2022-09-12T02:04:31.117Z,1011.04
2022-09-12T02:05:28.042Z,1011.06
2022-09-12T02:06:28.027Z,1011.08
2022-09-12T02:07:28.014Z,1011.06
2022-09-12T02:08:28.026Z,1011.08
2022-09-12T02:09:27.990Z,1011.07
2022-09-12T02:10:32.237Z,1011.08
2022-09-12T02:11:27.968Z,1011.11
2022-09-12T02:12:27.967Z,1011.09
2022-09-12T02:13:27.975Z,1011.08
2022-09-12T02:14:27.951Z,1011.09
2022-09-12T02:15:27.931Z,1011.08
2022-09-12T02:16:27.954Z,1011.10
2022-09-12T02:17:27.911Z,1011.10
2022-09-12T02:18:27.898Z,1011.09
2022-09-12T02:19:27.901Z,1011.05
2022-09-12T02:20:46.859Z,1011.09
2022-09-12T02:21:27.873Z,1011.05
2022-09-12T02:22:27.858Z,1011.03
2022-09-12T02:23:27.844Z,1011.10
2022-09-12T02:24:27.880Z,1011.10
2022-09-12T02:25:27.817Z,1011.11
2022-09-12T02:26:27.817Z,1011.11
2022-09-12T02:27:27.805Z,1011.07
2022-09-12T02:28:27.795Z,1011.05
2022-09-12T02:29:27.780Z,1011.04
2022-09-12T02:30:27.803Z,1011.03
2022-09-12T02:31:27.758Z,1011.03
2022-09-12T02:32:27.753Z,1011.00
2022-09-12T02:33:27.774Z,1011.05
2022-09-12T02:34:27.737Z,1011.02
2022-09-12T02:35:27.720Z,1011.01
2022-09-12T02:36:27.713Z,1011.02
2022-09-12T02:37:27.695Z,1011.01
2022-09-12T02:38:27.685Z,1011.02
2022-09-12T02:39:27.675Z,1011.00
2022-09-12T02:40:27.670Z,1010.99
2022-09-12T02:41:27.656Z,1011.02
2022-09-12T02:42:27.642Z,1010.99
2022-09-12T02:43:27.632Z,1010.97
2022-09-12T02:44:27.615Z,1011.01
2022-09-12T02:45:27.666Z,1011.02
2022-09-12T02:46:27.590Z,1011.02
2022-09-12T02:47:27.580Z,1011.05
2022-09-12T02:48:27.581Z,1011.01
2022-09-12T02:49:27.561Z,1011.03
2022-09-12T02:50:27.673Z,1011.04
2022-09-12T02:51:27.534Z,1011.05
2022-09-12T02:52:27.534Z,1011.08
2022-09-12T02:53:27.521Z,1011.07
2022-09-12T02:54:27.540Z,1011.07
2022-09-12T02:55:27.505Z,1011.05
2022-09-12T02:56:27.536Z,1011.03
2022-09-12T02:57:27.475Z,1011.07
2022-09-12T02:58:27.464Z,1011.09
2022-09-12T02:59:27.453Z,1011.09
2022-09-12T03:00:27.472Z,1011.12
2022-09-12T03:01:27.446Z,1011.12
2022-09-12T03:02:27.433Z,1011.14
2022-09-12T03:03:27.426Z,1011.18
2022-09-12T03:04:27.400Z,1011.20
2022-09-12T03:05:27.394Z,1011.18
2022-09-12T03:06:27.388Z,1011.18
2022-09-12T03:07:27.364Z,1011.15
2022-09-12T03:08:27.358Z,1011.15
2022-09-12T03:09:27.342Z,1011.11
2022-09-12T03:10:27.336Z,1011.14
2022-09-12T03:11:27.313Z,1011.14
2022-09-12T03:12:27.323Z,1011.11
2022-09-12T03:13:27.304Z,1011.15
2022-09-12T03:14:27.300Z,1011.11
2022-09-12T03:15:27.276Z,1011.11
2022-09-12T03:16:27.330Z,1011.08
2022-09-12T03:17:27.251Z,1011.09
2022-09-12T03:18:27.268Z,1011.05
2022-09-12T03:19:27.249Z,1011.06
2022-09-12T03:20:27.221Z,1011.07
2022-09-12T03:21:27.210Z,1011.07
2022-09-12T03:22:27.199Z,1011.05
2022-09-12T03:23:27.193Z,1011.07
2022-09-12T03:24:27.189Z,1011.08
2022-09-12T03:25:27.165Z,1011.05
2022-09-12T03:26:27.150Z,1011.08
2022-09-12T03:27:27.145Z,1011.04
2022-09-12T03:28:27.142Z,1011.05
2022-09-12T03:29:27.133Z,1011.04
2022-09-12T03:30:27.175Z,1011.05
2022-09-12T03:31:27.102Z,1011.10
2022-09-12T03:32:27.090Z,1011.11
2022-09-12T03:33:27.084Z,1011.12
2022-09-12T03:34:27.066Z,1011.08
2022-09-12T03:35:27.067Z,1011.10
2022-09-12T03:36:27.048Z,1011.06
2022-09-12T03:37:27.029Z,1011.06
2022-09-12T03:38:27.024Z,1011.08
2022-09-12T03:39:27.103Z,1011.08
2022-09-12T03:40:27.042Z,1011.06
2022-09-12T03:41:26.994Z,1011.08
2022-09-12T03:42:26.984Z,1011.07
2022-09-12T03:43:26.966Z,1011.07
2022-09-12T03:44:26.954Z,1011.07
2022-09-12T03:45:27.031Z,1011.08
2022-09-12T03:46:26.952Z,1011.09
2022-09-12T03:47:26.931Z,1011.09
2022-09-12T03:48:26.920Z,1011.04
2022-09-12T03:49:26.906Z,1011.07
2022-09-12T03:50:26.894Z,1011.03
2022-09-12T03:51:26.880Z,1011.05
2022-09-12T03:52:26.881Z,1011.08
2022-09-12T03:53:26.864Z,1011.11
2022-09-12T03:54:26.849Z,1011.13
2022-09-12T03:55:26.845Z,1011.18
2022-09-12T03:56:26.828Z,1011.12
2022-09-12T03:57:26.815Z,1011.19
2022-09-12T03:58:26.817Z,1011.18
2022-09-12T03:59:26.802Z,1011.22
2022-09-12T04:00:26.791Z,1011.22
2022-09-12T04:01:26.847Z,1011.22
2022-09-12T04:02:26.828Z,1011.23
2022-09-12T04:03:26.751Z,1011.22
2022-09-12T04:04:26.737Z,1011.23
2022-09-12T04:05:26.759Z,1011.24
2022-09-12T04:06:26.709Z,1011.25
2022-09-12T04:07:26.703Z,1011.27
2022-09-12T04:08:26.696Z,1011.25
2022-09-12T04:09:26.690Z,1011.24
2022-09-12T04:10:26.679Z,1011.26
2022-09-12T04:11:26.674Z,1011.24
2022-09-12T04:12:26.644Z,1011.23
2022-09-12T04:13:26.647Z,1011.21
2022-09-12T04:14:26.632Z,1011.25
2022-09-12T04:15:26.630Z,1011.23
2022-09-12T04:16:26.680Z,1011.22
2022-09-12T04:17:26.595Z,1011.22
2022-09-12T04:18:26.609Z,1011.18
2022-09-12T04:19:26.574Z,1011.20
2022-09-12T04:20:26.564Z,1011.19
2022-09-12T04:21:26.547Z,1011.18
2022-09-12T04:22:26.555Z,1011.19
2022-09-12T04:23:26.540Z,1011.18
2022-09-12T04:24:26.514Z,1011.17
2022-09-12T04:25:26.514Z,1011.19
2022-09-12T04:26:26.491Z,1011.19
2022-09-12T04:27:26.501Z,1011.17
2022-09-12T04:28:26.471Z,1011.16
2022-09-12T04:29:26.478Z,1011.17
2022-09-12T04:30:26.468Z,1011.17
2022-09-12T04:31:26.443Z,1011.19
2022-09-12T04:32:26.455Z,1011.19
2022-09-12T04:33:26.420Z,1011.19
2022-09-12T04:34:26.428Z,1011.21
2022-09-12T04:35:26.407Z,1011.20
2022-09-12T04:36:26.388Z,1011.21
2022-09-12T04:37:26.397Z,1011.19
2022-09-12T04:38:26.386Z,1011.21
2022-09-12T04:39:26.359Z,1011.22
2022-09-12T04:40:26.347Z,1011.22
2022-09-12T04:41:26.332Z,1011.16
2022-09-12T04:42:26.330Z,1011.24
2022-09-12T04:43:26.321Z,1011.20
2022-09-12T04:44:26.300Z,1011.20
2022-09-12T04:45:26.292Z,1011.22
2022-09-12T04:46:26.296Z,1011.20
2022-09-12T04:47:26.286Z,1011.20
2022-09-12T04:48:26.280Z,1011.22
2022-09-12T04:49:26.323Z,1011.19
2022-09-12T04:50:26.234Z,1011.18
2022-09-12T04:51:26.234Z,1011.16
2022-09-12T04:52:26.206Z,1011.19
2022-09-12T04:53:26.204Z,1011.18
2022-09-12T04:54:26.263Z,1011.16
2022-09-12T04:55:26.184Z,1011.17
2022-09-12T04:56:26.196Z,1011.17
2022-09-12T04:57:26.157Z,1011.15
2022-09-12T04:58:26.146Z,1011.16
2022-09-12T04:59:26.140Z,1011.17
2022-09-12T05:00:26.126Z,1011.19
2022-09-12T05:01:26.172Z,1011.13
2022-09-12T05:02:26.152Z,1011.16
2022-09-12T05:03:26.111Z,1011.18
2022-09-12T05:04:26.091Z,1011.13
2022-09-12T05:05:26.124Z,1011.14
2022-09-12T05:06:26.053Z,1011.16
2022-09-12T05:07:26.054Z,1011.18
2022-09-12T05:08:26.044Z,1011.17
2022-09-12T05:09:26.041Z,1011.18
2022-09-12T05:10:26.034Z,1011.19
2022-09-12T05:11:36.752Z,1011.19
2022-09-12T05:12:25.996Z,1011.16
2022-09-12T05:13:25.995Z,1011.17
2022-09-12T05:14:25.983Z,1011.21
2022-09-12T05:15:25.977Z,1011.18
2022-09-12T05:16:26.038Z,1011.23
2022-09-12T05:17:25.940Z,1011.23
2022-09-12T05:18:25.931Z,1011.24
2022-09-12T05:19:25.937Z,1011.26
2022-09-12T05:20:25.919Z,1011.24
2022-09-12T05:21:25.926Z,1011.20
2022-09-12T05:22:25.886Z,1011.22
2022-09-12T05:23:25.879Z,1011.24
2022-09-12T05:24:25.865Z,1011.22
2022-09-12T05:25:25.848Z,1011.21
2022-09-12T05:26:25.843Z,1011.25
2022-09-12T05:27:25.847Z,1011.22
2022-09-12T05:28:25.814Z,1011.23
2022-09-12T05:29:25.819Z,1011.25
2022-09-12T05:30:25.846Z,1011.24
2022-09-12T05:31:25.800Z,1011.24
2022-09-12T05:32:25.786Z,1011.26
2022-09-12T05:33:25.779Z,1011.28
2022-09-12T05:34:25.756Z,1011.26
2022-09-12T05:35:25.785Z,1011.33
2022-09-12T05:36:25.734Z,1011.29
2022-09-12T05:37:25.776Z,1011.31
2022-09-12T05:38:25.713Z,1011.33
2022-09-12T05:39:25.706Z,1011.35
2022-09-12T05:40:25.683Z,1011.33
2022-09-12T05:41:25.684Z,1011.34
2022-09-12T05:42:25.676Z,1011.36
2022-09-12T05:43:25.676Z,1011.35
2022-09-12T05:44:25.649Z,1011.34
2022-09-12T05:45:25.646Z,1011.42
2022-09-12T05:46:25.630Z,1011.41
2022-09-12T05:47:25.609Z,1011.40
2022-09-12T05:48:25.617Z,1011.41
2022-09-12T05:49:25.591Z,1011.42
2022-09-12T05:50:25.580Z,1011.43
2022-09-12T05:51:25.576Z,1011.47
2022-09-12T05:52:25.552Z,1011.47
2022-09-12T05:53:25.586Z,1011.44
2022-09-12T05:54:28.390Z,1011.44
2022-09-12T05:55:25.534Z,1011.43
2022-09-12T05:56:25.507Z,1011.42
2022-09-12T05:57:25.508Z,1011.47
2022-09-12T05:58:25.503Z,1011.44
2022-09-12T05:59:25.523Z,1011.47
2022-09-12T06:00:25.511Z,1011.48
2022-09-12T06:01:25.475Z,1011.52
2022-09-12T06:02:25.469Z,1011.50
2022-09-12T06:03:25.441Z,1011.53
2022-09-12T06:04:25.452Z,1011.51
2022-09-12T06:05:25.413Z,1011.51
2022-09-12T06:06:25.407Z,1011.50
2022-09-12T06:07:25.396Z,1011.53
2022-09-12T06:08:25.381Z,1011.54
2022-09-12T06:09:25.425Z,1011.52
2022-09-12T06:10:25.376Z,1011.56
2022-09-12T06:11:25.362Z,1011.54
2022-09-12T06:12:25.335Z,1011.64
2022-09-12T06:13:25.347Z,1011.54
2022-09-12T06:14:25.364Z,1011.60
2022-09-12T06:15:25.306Z,1011.56
2022-09-12T06:16:25.342Z,1011.57
2022-09-12T06:17:25.293Z,1011.58
2022-09-12T06:18:25.277Z,1011.60
2022-09-12T06:19:25.261Z,1011.61
2022-09-12T06:20:25.267Z,1011.63
2022-09-12T06:21:25.246Z,1011.63
2022-09-12T06:22:25.245Z,1011.66
2022-09-12T06:23:25.224Z,1011.65
2022-09-12T06:24:25.212Z,1011.66
2022-09-12T06:25:25.223Z,1011.67
2022-09-12T06:26:25.197Z,1011.67
2022-09-12T06:27:25.177Z,1011.67
2022-09-12T06:28:25.158Z,1011.71
2022-09-12T06:29:25.164Z,1011.71
2022-09-12T06:30:25.636Z,1011.70
2022-09-12T06:31:25.171Z,1011.71
2022-09-12T06:32:25.136Z,1011.69
2022-09-12T06:33:25.115Z,1011.73
2022-09-12T06:34:25.109Z,1011.75
2022-09-12T06:35:25.092Z,1011.74
2022-09-12T06:36:25.079Z,1011.75
2022-09-12T06:37:25.089Z,1011.75
2022-09-12T06:38:25.056Z,1011.76
2022-09-12T06:39:25.058Z,1011.76
2022-09-12T06:40:25.101Z,1011.73
2022-09-12T06:41:25.021Z,1011.76
2022-09-12T06:42:25.039Z,1011.71
2022-09-12T06:43:25.006Z,1011.72
2022-09-12T06:44:24.998Z,1011.74
2022-09-12T06:45:24.996Z,1011.73
2022-09-12T06:46:24.972Z,1011.72
2022-09-12T06:47:24.965Z,1011.73
2022-09-12T06:48:24.954Z,1011.74
2022-09-12T06:49:24.940Z,1011.72
2022-09-12T06:50:24.978Z,1011.75
2022-09-12T06:51:24.924Z,1011.73
2022-09-12T06:52:24.922Z,1011.76
2022-09-12T06:53:24.918Z,1011.77
2022-09-12T06:54:24.878Z,1011.78
2022-09-12T06:55:27.776Z,1011.76
2022-09-12T06:56:24.867Z,1011.76
2022-09-12T06:57:24.858Z,1011.76
2022-09-12T06:58:24.883Z,1011.75
2022-09-12T06:59:24.834Z,1011.74
2022-09-12T07:00:24.894Z,1011.72
2022-09-12T07:01:24.867Z,1011.73
2022-09-12T07:02:24.819Z,1011.67
2022-09-12T07:03:24.790Z,1011.68
2022-09-12T07:04:24.796Z,1011.65
2022-09-12T07:05:24.773Z,1011.63
2022-09-12T07:06:24.751Z,1011.58
2022-09-12T07:07:24.743Z,1011.62
2022-09-12T07:08:24.729Z,1011.62
2022-09-12T07:09:24.737Z,1011.57
2022-09-12T07:10:24.797Z,1011.58
2022-09-12T07:11:24.699Z,1011.61
2022-09-12T07:12:24.693Z,1011.61
2022-09-12T07:13:24.732Z,1011.61
2022-09-12T07:14:24.688Z,1011.58
2022-09-12T07:15:24.654Z,1011.58
2022-09-12T07:16:24.709Z,1011.61
2022-09-12T07:17:24.631Z,1011.58
2022-09-12T07:18:24.644Z,1011.62
2022-09-12T07:19:24.628Z,1011.56
2022-09-12T07:20:24.610Z,1011.61
2022-09-12T07:21:24.601Z,1011.61
2022-09-12T07:22:24.576Z,1011.55
2022-09-12T07:23:24.568Z,1011.61
2022-09-12T07:24:24.550Z,1011.62
2022-09-12T07:25:24.567Z,1011.65
2022-09-12T07:26:24.541Z,1011.62
2022-09-12T07:27:24.518Z,1011.62
2022-09-12T07:28:24.519Z,1011.69
2022-09-12T07:29:36.491Z,1011.65
2022-09-12T07:30:24.518Z,1011.63
2022-09-12T07:31:24.482Z,1011.64
2022-09-12T07:32:24.485Z,1011.63
2022-09-12T07:33:24.461Z,1011.63
2022-09-12T07:34:24.462Z,1011.63
2022-09-12T07:35:24.438Z,1011.62
2022-09-12T07:36:24.433Z,1011.66
2022-09-12T07:37:24.434Z,1011.64
2022-09-12T07:38:24.410Z,1011.67
2022-09-12T07:39:24.399Z,1011.64
2022-09-12T07:40:24.385Z,1011.64
2022-09-12T07:41:24.375Z,1011.67
2022-09-12T07:42:24.402Z,1011.67
2022-09-12T07:43:24.349Z,1011.66
2022-09-12T07:44:24.347Z,1011.65
2022-09-12T07:45:24.366Z,1011.65
2022-09-12T07:46:24.333Z,1011.64
2022-09-12T07:47:24.314Z,1011.66
2022-09-12T07:48:24.308Z,1011.65
2022-09-12T07:49:24.298Z,1011.68
2022-09-12T07:50:24.278Z,1011.67
2022-09-12T07:51:24.260Z,1011.69
2022-09-12T07:52:24.256Z,1011.65
2022-09-12T07:53:24.246Z,1011.66
2022-09-12T07:54:24.248Z,1011.63
2022-09-12T07:55:24.213Z,1011.61
2022-09-12T07:56:29.420Z,1011.62
2022-09-12T07:57:24.202Z,1011.62
2022-09-12T07:58:24.186Z,1011.63
2022-09-12T07:59:41.807Z,1011.72
2022-09-12T08:00:24.181Z,1011.69
2022-09-12T08:01:24.186Z,1011.69
2022-09-12T08:02:24.168Z,1011.71
2022-09-12T08:03:24.138Z,1011.70
2022-09-12T08:04:24.159Z,1011.68
2022-09-12T08:05:24.126Z,1011.68
2022-09-12T08:06:24.126Z,1011.69
2022-09-12T08:07:24.098Z,1011.71
2022-09-12T08:08:24.088Z,1011.68
2022-09-12T08:09:24.078Z,1011.68
2022-09-12T08:10:24.097Z,1011.70
2022-09-12T08:11:24.050Z,1011.74
2022-09-12T08:12:24.047Z,1011.72
2022-09-12T08:13:24.027Z,1011.74
2022-09-12T08:14:24.020Z,1011.75
2022-09-12T08:15:24.027Z,1011.72
2022-09-12T08:16:24.015Z,1011.75
2022-09-12T08:17:23.989Z,1011.75
2022-09-12T08:18:23.973Z,1011.76
2022-09-12T08:19:23.975Z,1011.76
2022-09-12T08:20:27.771Z,1011.75
2022-09-12T08:21:23.970Z,1011.73
2022-09-12T08:22:23.929Z,1011.73
2022-09-12T08:23:23.915Z,1011.76
2022-09-12T08:24:23.898Z,1011.75
2022-09-12T08:25:23.905Z,1011.73
2022-09-12T08:26:23.892Z,1011.74
2022-09-12T08:27:23.893Z,1011.72
2022-09-12T08:28:23.874Z,1011.69
2022-09-12T08:29:23.855Z,1011.69
2022-09-12T08:30:23.842Z,1011.70
2022-09-12T08:31:23.872Z,1011.73
2022-09-12T08:32:23.841Z,1011.73
2022-09-12T08:33:23.808Z,1011.72
2022-09-12T08:34:23.796Z,1011.73
2022-09-12T08:35:23.788Z,1011.71
2022-09-12T08:36:23.783Z,1011.72
2022-09-12T08:37:23.867Z,1011.75
2022-09-12T08:38:23.769Z,1011.76
2022-09-12T08:39:23.770Z,1011.74
2022-09-12T08:40:23.739Z,1011.73
2022-09-12T08:41:23.724Z,1011.75
2022-09-12T08:42:23.709Z,1011.70
2022-09-12T08:43:23.710Z,1011.70
2022-09-12T08:44:23.706Z,1011.72
2022-09-12T08:45:23.687Z,1011.72
2022-09-12T08:46:23.749Z,1011.73
2022-09-12T08:47:23.658Z,1011.71
2022-09-12T08:48:23.650Z,1011.73
2022-09-12T08:49:23.653Z,1011.73
2022-09-12T08:50:23.630Z,1011.77
2022-09-12T08:51:23.618Z,1011.76
2022-09-12T08:52:23.603Z,1011.74
2022-09-12T08:53:23.595Z,1011.72
2022-09-12T08:54:23.592Z,1011.74
2022-09-12T08:55:23.583Z,1011.79
2022-09-12T08:56:23.559Z,1011.75
2022-09-12T08:57:23.552Z,1011.73
2022-09-12T08:58:23.541Z,1011.72
2022-09-12T08:59:23.525Z,1011.72
2022-09-12T09:00:23.526Z,1011.69
2022-09-12T09:01:23.559Z,1011.73
2022-09-12T09:02:23.537Z,1011.71
2022-09-12T09:03:23.494Z,1011.69
2022-09-12T09:04:25.758Z,1011.68
2022-09-12T09:05:23.472Z,1011.69
2022-09-12T09:06:23.466Z,1011.69
2022-09-12T09:07:23.451Z,1011.68
2022-09-12T09:08:23.423Z,1011.68
2022-09-12T09:09:23.429Z,1011.67
2022-09-12T09:10:23.408Z,1011.70
2022-09-12T09:11:23.394Z,1011.69
2022-09-12T09:12:23.401Z,1011.69
2022-09-12T09:13:23.387Z,1011.71
2022-09-12T09:14:23.367Z,1011.68
2022-09-12T09:15:23.363Z,1011.70
2022-09-12T09:16:23.347Z,1011.73
2022-09-12T09:17:23.332Z,1011.70
2022-09-12T09:18:23.323Z,1011.64
2022-09-12T09:19:23.334Z,1011.65
2022-09-12T09:20:23.311Z,1011.64
2022-09-12T09:21:23.295Z,1011.64
2022-09-12T09:22:23.280Z,1011.62
2022-09-12T09:23:23.262Z,1011.62
2022-09-12T09:24:23.267Z,1011.58
2022-09-12T09:25:23.283Z,1011.64
2022-09-12T09:26:23.229Z,1011.62
2022-09-12T09:27:39.831Z,1011.63
2022-09-12T09:28:23.214Z,1011.61
2022-09-12T09:29:23.226Z,1011.62
2022-09-12T09:30:23.204Z,1011.62
2022-09-12T09:31:23.288Z,1011.60
2022-09-12T09:32:23.165Z,1011.58
2022-09-12T09:33:23.172Z,1011.58
2022-09-12T09:34:23.154Z,1011.59
2022-09-12T09:35:23.158Z,1011.59
2022-09-12T09:36:23.134Z,1011.61
2022-09-12T09:37:23.122Z,1011.61
2022-09-12T09:38:23.113Z,1011.59
2022-09-12T09:39:23.100Z,1011.58
2022-09-12T09:40:23.259Z,1011.60
2022-09-12T09:41:23.081Z,1011.59
2022-09-12T09:42:23.074Z,1011.61
2022-09-12T09:43:23.085Z,1011.61
2022-09-12T09:44:23.040Z,1011.65
2022-09-12T09:45:23.043Z,1011.57
2022-09-12T09:46:23.040Z,1011.57
2022-09-12T09:47:23.018Z,1011.58
2022-09-12T09:48:23.002Z,1011.55
2022-09-12T09:49:22.997Z,1011.53
2022-09-12T09:50:23.015Z,1011.53
2022-09-12T09:51:22.991Z,1011.53
2022-09-12T09:52:22.958Z,1011.55
2022-09-12T09:53:22.950Z,1011.56
2022-09-12T09:54:22.940Z,1011.55
2022-09-12T09:55:22.926Z,1011.50
2022-09-12T09:56:23.369Z,1011.49
2022-09-12T09:57:22.906Z,1011.52
2022-09-12T09:58:22.913Z,1011.49
2022-09-12T09:59:22.893Z,1011.50
2022-09-12T10:00:22.870Z,1011.48
2022-09-12T10:01:22.900Z,1011.51
2022-09-12T10:02:24.205Z,1011.50
2022-09-12T10:03:22.840Z,1011.52
2022-09-12T10:04:22.826Z,1011.48
2022-09-12T10:05:22.824Z,1011.47
2022-09-12T10:06:22.841Z,1011.45
2022-09-12T10:07:22.854Z,1011.43
2022-09-12T10:08:22.806Z,1011.45
2022-09-12T10:09:22.795Z,1011.45
2022-09-12T10:10:22.774Z,1011.46
2022-09-12T10:11:22.788Z,1011.46
2022-09-12T10:12:22.743Z,1011.43
2022-09-12T10:13:22.748Z,1011.43
2022-09-12T10:14:22.727Z,1011.40
2022-09-12T10:15:22.714Z,1011.44
2022-09-12T10:16:22.710Z,1011.42
2022-09-12T10:17:22.682Z,1011.41
2022-09-12T10:18:22.687Z,1011.42
2022-09-12T10:19:22.678Z,1011.40
2022-09-12T10:20:22.756Z,1011.40
2022-09-12T10:21:22.652Z,1011.42
2022-09-12T10:22:22.629Z,1011.42
2022-09-12T10:23:22.651Z,1011.40
2022-09-12T10:24:22.625Z,1011.40
2022-09-12T10:25:22.606Z,1011.40
2022-09-12T10:26:22.588Z,1011.43
2022-09-12T10:27:22.590Z,1011.38
2022-09-12T10:28:22.579Z,1011.40
2022-09-12T10:29:22.564Z,1011.35
2022-09-12T10:30:22.556Z,1011.36
2022-09-12T10:31:22.530Z,1011.34
2022-09-12T10:32:23.877Z,1011.38
2022-09-12T10:33:22.522Z,1011.40
2022-09-12T10:34:22.511Z,1011.36
2022-09-12T10:35:22.516Z,1011.39
2022-09-12T10:36:22.480Z,1011.40
2022-09-12T10:37:22.465Z,1011.39
2022-09-12T10:38:22.453Z,1011.35
2022-09-12T10:39:22.463Z,1011.36
2022-09-12T10:40:22.519Z,1011.36
2022-09-12T10:41:22.428Z,1011.41
2022-09-12T10:42:23.444Z,1011.38
2022-09-12T10:43:22.412Z,1011.39
2022-09-12T10:44:22.391Z,1011.36
2022-09-12T10:45:22.400Z,1011.36
2022-09-12T10:46:22.445Z,1011.33
2022-09-12T10:47:23.756Z,1011.32
2022-09-12T10:48:22.359Z,1011.34
2022-09-12T10:49:22.345Z,1011.35
2022-09-12T10:50:23.227Z,1011.31
2022-09-12T10:51:22.345Z,1011.28
2022-09-12T10:52:22.316Z,1011.28
2022-09-12T10:53:22.300Z,1011.25
2022-09-12T10:54:22.297Z,1011.24
2022-09-12T10:55:22.285Z,1011.27
2022-09-12T10:56:22.310Z,1011.28
2022-09-12T10:57:22.266Z,1011.29
2022-09-12T10:58:22.254Z,1011.28
2022-09-12T10:59:22.236Z,1011.29
2022-09-12T11:00:22.236Z,1011.32
2022-09-12T11:01:22.231Z,1011.30
2022-09-12T11:02:22.251Z,1011.32
2022-09-12T11:03:22.199Z,1011.27
2022-09-12T11:04:22.177Z,1011.31
2022-09-12T11:05:22.946Z,1011.29
2022-09-12T11:06:22.155Z,1011.28
2022-09-12T11:07:22.193Z,1011.27
2022-09-12T11:08:22.145Z,1011.28
2022-09-12T11:09:22.147Z,1011.28
2022-09-12T11:10:22.159Z,1011.26
2022-09-12T11:11:22.109Z,1011.32
2022-09-12T11:12:22.115Z,1011.35
2022-09-12T11:13:22.100Z,1011.36
2022-09-12T11:14:22.091Z,1011.29
2022-09-12T11:15:22.068Z,1011.30
2022-09-12T11:16:22.138Z,1011.29
2022-09-12T11:17:22.044Z,1011.28
2022-09-12T11:18:22.044Z,1011.30
2022-09-12T11:19:22.055Z,1011.27
2022-09-12T11:20:22.013Z,1011.28
2022-09-12T11:21:22.010Z,1011.26
2022-09-12T11:22:21.984Z,1011.28
2022-09-12T11:23:22.017Z,1011.28
2022-09-12T11:24:21.972Z,1011.34
2022-09-12T11:25:21.969Z,1011.34
2022-09-12T11:26:21.946Z,1011.37
2022-09-12T11:27:21.941Z,1011.35
2022-09-12T11:28:21.927Z,1011.39
2022-09-12T11:29:21.933Z,1011.34
2022-09-12T11:30:21.915Z,1011.38
2022-09-12T11:31:21.904Z,1011.32
2022-09-12T11:32:21.882Z,1011.33
2022-09-12T11:33:21.876Z,1011.36
2022-09-12T11:34:21.880Z,1011.30
2022-09-12T11:35:21.861Z,1011.29
2022-09-12T11:36:21.849Z,1011.33
2022-09-12T11:37:21.839Z,1011.29
2022-09-12T11:38:21.869Z,1011.30
2022-09-12T11:39:21.816Z,1011.27
2022-09-12T11:40:21.884Z,1011.27
2022-09-12T11:41:21.790Z,1011.28
2022-09-12T11:42:21.770Z,1011.29
2022-09-12T11:43:21.773Z,1011.24
2022-09-12T11:44:21.777Z,1011.22
2022-09-12T11:45:21.784Z,1011.15
2022-09-12T11:46:21.762Z,1011.14
2022-09-12T11:47:21.726Z,1011.15
2022-09-12T11:48:21.729Z,1011.15
2022-09-12T11:49:21.714Z,1011.08
2022-09-12T11:50:21.693Z,1011.10
2022-09-12T11:51:21.700Z,1011.08
2022-09-12T11:52:21.672Z,1011.12
2022-09-12T11:53:21.662Z,1011.11
2022-09-12T11:54:21.680Z,1011.12
2022-09-12T11:55:21.655Z,1011.07
2022-09-12T11:56:23.783Z,1011.10
2022-09-12T11:57:21.624Z,1011.08
2022-09-12T11:58:21.601Z,1011.09
2022-09-12T11:59:21.602Z,1011.10
2022-09-12T12:00:21.589Z,1011.05
2022-09-12T12:01:21.597Z,1011.02
2022-09-12T12:02:21.620Z,1011.01
2022-09-12T12:03:21.586Z,1011.03
2022-09-12T12:04:21.543Z,1011.00
2022-09-12T12:05:21.587Z,1011.04